Portada
METAR-TAF:

METAR-TAF

Aeroports :

Japanese Ground Self Defense Force

Tokachi-Obihiro, Japó

latitud: 42-54N, longitud: 143-10E, altitud: 84 m

Observació

L'informe es va fer fa 1 hora i 48 minuts, a les 02:29 UTC
Vent 5 kt del Est
Temperatura 8°C
Humitat 53%
Pressió 1018 hPa
Visibilitat 10 km o més
Escasses núvols a una alçada de 5000 ft
Cel ennuvolat a una alçada de 7000 ft
Cel ennuvolat a una alçada de 22000 ft

METAR: RJCT 010229Z 09005KT 9999 FEW050 BKN070 BKN220 08/M01 Q1018 RMK 2CU050 5AC070 6CI220 A3008

Hora: 13:17 (04:17 UTC)


TAF: manca

Observacions i pronòstics meteorològics de més de 4000 aeroports (METAR i TAF).

Les estacions disponibles són els punts grocs i vermells al mapa.

Posi el ratolí al punt desitjat per veure el nom de l'estació.

Feu clic per veure les observacions i els pronòstics meteorològics.

Per canviar el mapa: feu clic els botons verds amb una creu de color negre per apropar; al botó verd amb un guió per allunyar la imatge; o en les fletxes verdes per a mapes adjacents.


METAR-TAF: